Time;durP1;ratioP1;P1;durP2;ratioP2;P2;SDS_P1;SDS_P2;PMS_P1;PMS_P2;Temp;Humidity;BMP_temperature;BMP_pressure;BME280_temperature;BME280_humidity;BME280_pressure;Samples;Min_cycle;Max_cycle;Signal;HPM_P1;HPM_P2
2023/05/19 00:01:12;;;;;;;12.83;7.97;;;;;8.00;102011.00;;;;9810737;29;20989;-76
2023/05/19 00:06:13;;;;;;;16.47;9.30;;;;;7.90;102008.00;;;;9805771;29;20227;-79
2023/05/19 00:11:15;;;;;;;16.57;8.03;;;;;7.90;102005.00;;;;9824255;29;20238;-75
2023/05/19 00:16:17;;;;;;;15.00;7.77;;;;;7.90;101990.00;;;;9780732;29;20231;-80
2023/05/19 00:21:19;;;;;;;15.03;7.63;;;;;7.80;101985.00;;;;9807367;29;20296;-74
2023/05/19 00:26:21;;;;;;;12.60;8.07;;;;;7.70;101970.00;;;;9799112;29;20266;-75
2023/05/19 00:31:33;;;;;;;12.00;7.87;;;;;7.70;101974.00;;;;9781502;29;21211;-75
2023/05/19 00:36:35;;;;;;;14.47;7.67;;;;;7.70;101973.00;;;;9783340;29;20953;-75
2023/05/19 00:41:36;;;;;;;11.80;7.67;;;;;7.60;101974.00;;;;9799284;29;20663;-75
2023/05/19 00:46:38;;;;;;;15.67;7.33;;;;;7.50;101973.00;;;;9796945;29;20351;-75
2023/05/19 00:51:40;;;;;;;11.47;7.90;;;;;7.50;101975.00;;;;9795075;29;20303;-75
2023/05/19 00:56:41;;;;;;;18.53;8.97;;;;;7.40;101979.00;;;;9805832;29;20241;-77
2023/05/19 01:01:44;;;;;;;14.27;8.70;;;;;7.30;101977.00;;;;9805348;29;20282;-77
2023/05/19 01:06:48;;;;;;;10.67;7.97;;;;;7.20;101981.00;;;;9797949;29;20228;-77
2023/05/19 01:11:50;;;;;;;15.43;9.27;;;;;7.00;101992.00;;;;9803493;29;20239;-78
2023/05/19 01:17:07;;;;;;;12.87;9.27;;;;;7.00;101988.00;;;;9805737;29;20348;-76
2023/05/19 01:22:26;;;;;;;15.80;9.60;;;;;6.90;101982.00;;;;9785141;29;20596;-76
2023/05/19 01:27:42;;;;;;;20.03;10.33;;;;;6.90;101980.00;;;;9810610;29;20237;-78
2023/05/19 01:32:44;;;;;;;14.63;8.97;;;;;6.80;101980.00;;;;9837146;29;20324;-76
2023/05/19 01:37:46;;;;;;;15.83;9.17;;;;;6.80;101968.00;;;;9834627;29;20266;-77
2023/05/19 01:42:49;;;;;;;15.33;9.10;;;;;6.70;101965.00;;;;9838116;29;20322;-76
2023/05/19 01:47:54;;;;;;;16.33;9.40;;;;;6.60;101965.00;;;;9848765;29;20231;-78
2023/05/19 01:52:57;;;;;;;12.37;8.97;;;;;6.50;101970.00;;;;9830500;29;20215;-77
2023/05/19 01:57:58;;;;;;;17.30;9.93;;;;;6.50;101973.00;;;;9850412;29;21338;-77
2023/05/19 02:03:24;;;;;;;14.70;9.67;;;;;6.40;101970.00;;;;9875318;29;21683;-83
2023/05/19 02:08:55;;;;;;;17.10;9.80;;;;;6.40;101966.00;;;;9865645;29;20232;-82
2023/05/19 02:14:01;;;;;;;19.50;11.07;;;;;6.30;101971.00;;;;9846644;29;21276;-77
2023/05/19 02:19:03;;;;;;;14.67;10.80;;;;;6.20;101960.00;;;;9823857;29;20227;-77
2023/05/19 02:24:05;;;;;;;17.57;10.50;;;;;6.20;101958.00;;;;9839882;29;21458;-80
2023/05/19 02:29:06;;;;;;;14.10;9.73;;;;;6.20;101957.00;;;;9841429;29;21171;-80
2023/05/19 02:34:08;;;;;;;24.73;11.03;;;;;6.20;101942.00;;;;9839277;29;20231;-76
2023/05/19 02:39:11;;;;;;;13.23;9.40;;;;;6.20;101948.00;;;;9836294;29;20317;-77
2023/05/19 02:44:13;;;;;;;18.47;11.17;;;;;6.20;101939.00;;;;9835087;29;20243;-76
2023/05/19 02:49:14;;;;;;;16.90;10.50;;;;;6.20;101937.00;;;;9821265;29;20292;-76
2023/05/19 02:54:15;;;;;;;17.30;12.40;;;;;6.10;101939.00;;;;9807224;29;20972;-77
2023/05/19 02:59:17;;;;;;;17.90;12.03;;;;;6.10;101942.00;;;;9790291;29;20710;-76
2023/05/19 03:04:18;;;;;;;19.17;11.13;;;;;6.10;101946.00;;;;9800545;29;20235;-77
2023/05/19 03:09:20;;;;;;;19.90;10.63;;;;;6.00;101939.00;;;;9784897;29;20227;-76
2023/05/19 03:14:23;;;;;;;17.90;11.83;;;;;6.00;101942.00;;;;9803437;29;20551;-76
2023/05/19 03:19:26;;;;;;;23.77;11.80;;;;;5.90;101946.00;;;;9788331;29;20270;-77
2023/05/19 03:24:27;;;;;;;16.43;11.60;;;;;5.90;101938.00;;;;9785583;29;20219;-76
2023/05/19 03:29:29;;;;;;;16.17;11.60;;;;;5.80;101942.00;;;;9789780;29;20269;-76
2023/05/19 03:34:32;;;;;;;20.33;11.73;;;;;5.70;101935.00;;;;9804558;29;20223;-76
2023/05/19 03:39:34;;;;;;;16.80;11.70;;;;;5.70;101938.00;;;;9804325;29;20597;-76
2023/05/19 03:44:35;;;;;;;16.70;11.80;;;;;5.70;101934.00;;;;9774260;29;20728;-76
2023/05/19 03:49:37;;;;;;;17.57;11.43;;;;;5.70;101928.00;;;;9787747;29;21493;-75
2023/05/19 03:55:11;;;;;;;20.10;11.30;;;;;5.70;101926.00;;;;9765444;29;20396;-76
2023/05/19 04:00:14;;;;;;;17.40;11.63;;;;;5.60;101942.00;;;;9788428;29;20239;-76
2023/05/19 04:05:15;;;;;;;18.40;11.97;;;;;5.70;101937.00;;;;9804110;29;20663;-76
2023/05/19 04:10:17;;;;;;;20.53;12.67;;;;;5.80;101938.00;;;;9803661;29;20282;-76
2023/05/19 04:15:19;;;;;;;17.83;12.07;;;;;5.90;101941.00;;;;9773148;29;20459;-77
2023/05/19 04:20:21;;;;;;;17.93;11.63;;;;;6.00;101956.00;;;;9803325;29;20246;-77
2023/05/19 04:25:24;;;;;;;20.83;12.47;;;;;6.00;101949.00;;;;9793994;29;21229;-78
2023/05/19 04:30:25;;;;;;;20.70;11.50;;;;;6.10;101952.00;;;;9777577;29;20219;-78
2023/05/19 04:35:27;;;;;;;22.20;13.23;;;;;6.20;101957.00;;;;9789892;29;20312;-76
2023/05/19 04:40:29;;;;;;;18.90;11.23;;;;;6.30;101968.00;;;;9785330;29;20231;-78
2023/05/19 04:45:32;;;;;;;17.67;11.27;;;;;6.40;101975.00;;;;9789450;29;20243;-78
2023/05/19 04:50:37;;;;;;;16.87;12.47;;;;;6.50;101971.00;;;;9774964;29;20878;-78
2023/05/19 04:55:39;;;;;;;20.03;12.37;;;;;6.70;101971.00;;;;9789330;29;20334;-79
2023/05/19 05:00:41;;;;;;;18.20;12.23;;;;;7.30;101977.00;;;;9785209;29;20765;-79
2023/05/19 05:05:43;;;;;;;27.33;14.40;;;;;7.60;101979.00;;;;9787838;29;20219;-79
2023/05/19 05:10:45;;;;;;;18.13;13.00;;;;;7.70;101983.00;;;;9788845;29;20238;-79
2023/05/19 05:15:46;;;;;;;21.60;13.00;;;;;8.00;101986.00;;;;9801109;29;20231;-79
2023/05/19 05:20:49;;;;;;;21.17;12.47;;;;;8.20;101989.00;;;;9789413;29;20824;-78
2023/05/19 05:25:51;;;;;;;20.23;12.90;;;;;8.50;101995.00;;;;9771789;29;20465;-77
2023/05/19 05:30:55;;;;;;;22.27;12.10;;;;;8.50;102000.00;;;;9788555;29;20224;-78
2023/05/19 05:35:57;;;;;;;18.73;12.60;;;;;9.00;102003.00;;;;9763609;29;20215;-79
2023/05/19 05:41:11;;;;;;;20.57;11.40;;;;;9.60;102001.00;;;;9805388;29;20406;-79
2023/05/19 05:46:12;;;;;;;17.13;12.90;;;;;10.20;101990.00;;;;9808897;29;20700;-76
2023/05/19 05:51:15;;;;;;;19.03;11.43;;;;;10.80;101996.00;;;;9808530;29;21500;-78
2023/05/19 05:56:17;;;;;;;15.63;11.60;;;;;11.40;101996.00;;;;9820877;29;20218;-76
2023/05/19 06:01:24;;;;;;;19.67;11.10;;;;;11.90;102000.00;;;;9778580;29;20254;-77
2023/05/19 06:06:26;;;;;;;15.57;10.50;;;;;12.30;102013.00;;;;9778208;29;21512;-76
2023/05/19 06:11:29;;;;;;;16.00;10.73;;;;;12.70;102006.00;;;;9759173;29;20231;-75
2023/05/19 06:16:33;;;;;;;15.27;10.00;;;;;13.00;102013.00;;;;9795052;29;20227;-82
2023/05/19 06:21:35;;;;;;;18.17;10.13;;;;;13.20;102009.00;;;;9816060;29;21390;-82
2023/05/19 06:26:37;;;;;;;16.60;10.07;;;;;13.50;102001.00;;;;9812373;29;20974;-75
2023/05/19 06:31:38;;;;;;;18.30;10.87;;;;;13.90;102010.00;;;;9798876;29;20227;-81
2023/05/19 06:36:45;;;;;;;17.87;10.07;;;;;14.40;102012.00;;;;9819552;29;20235;-82
2023/05/19 06:41:47;;;;;;;13.40;8.73;;;;;14.80;102010.00;;;;9788142;29;20239;-75
2023/05/19 06:47:08;;;;;;;15.67;10.10;;;;;15.20;102015.00;;;;9781140;29;20223;-76
2023/05/19 06:52:10;;;;;;;17.53;9.47;;;;;15.50;102005.00;;;;9794729;29;20251;-76
2023/05/19 06:57:11;;;;;;;13.87;9.23;;;;;15.80;102003.00;;;;9778704;29;20231;-76
2023/05/19 07:02:13;;;;;;;14.03;9.60;;;;;16.20;102002.00;;;;9798053;29;20561;-76
2023/05/19 07:07:14;;;;;;;14.98;8.65;;;;;16.60;102009.00;;;;9787218;29;21546;-75
2023/05/19 07:12:16;;;;;;;13.30;8.75;;;;;16.90;102008.00;;;;9804362;29;20219;-83
2023/05/19 07:17:18;;;;;;;11.52;8.75;;;;;16.60;102009.00;;;;9824905;29;20223;-83
2023/05/19 07:22:21;;;;;;;16.58;9.05;;;;;17.10;101998.00;;;;9813625;29;20286;-76
2023/05/19 07:27:22;;;;;;;15.05;9.48;;;;;17.80;102001.00;;;;9809765;29;20220;-82
2023/05/19 07:32:23;;;;;;;11.07;8.80;;;;;18.40;101994.00;;;;9841356;29;20234;-81
2023/05/19 07:37:25;;;;;;;12.63;8.90;;;;;18.70;101995.00;;;;9827502;29;20235;-76
2023/05/19 07:42:26;;;;;;;16.13;9.20;;;;;19.00;101995.00;;;;9799513;29;20247;-76
2023/05/19 07:47:29;;;;;;;16.00;9.07;;;;;19.40;101995.00;;;;9814263;29;20229;-77
2023/05/19 07:52:31;;;;;;;12.73;8.02;;;;;19.80;101993.00;;;;9826211;29;21290;-77
2023/05/19 07:57:32;;;;;;;11.57;8.75;;;;;20.00;101993.00;;;;9833037;29;20606;-80
2023/05/19 08:02:33;;;;;;;14.45;8.05;;;;;20.50;101992.00;;;;10236935;24;20626;-78
2023/05/19 08:13:40;;;;;;;9.38;7.82;;;;;21.40;101978.00;;;;10389012;24;20268;-76
2023/05/19 08:18:42;;;;;;;9.35;7.57;;;;;21.80;101968.00;;;;9795978;29;20219;-76
2023/05/19 08:23:43;;;;;;;14.23;7.97;;;;;21.90;101972.00;;;;9792740;29;20242;-76
2023/05/19 08:28:45;;;;;;;14.10;9.20;;;;;22.40;101963.00;;;;9805279;29;20256;-78
2023/05/19 08:33:46;;;;;;;9.57;6.82;;;;;22.70;101968.00;;;;9803435;29;20251;-77
2023/05/19 08:38:47;;;;;;;9.60;6.65;;;;;23.00;101961.00;;;;9780446;29;20587;-76
2023/05/19 08:43:49;;;;;;;10.32;6.72;;;;;23.20;101967.00;;;;9789017;29;20243;-76
2023/05/19 08:48:55;;;;;;;10.25;5.70;;;;;23.70;101958.00;;;;9798760;29;20219;-77
2023/05/19 08:54:08;;;;;;;11.77;5.75;;;;;23.90;101953.00;;;;9760427;29;20251;-75
2023/05/19 08:59:13;;;;;;;10.02;5.72;;;;;24.30;101951.00;;;;9804328;29;20347;-77
2023/05/19 09:04:15;;;;;;;9.05;6.13;;;;;24.60;101942.00;;;;9793822;29;20282;-77
2023/05/19 09:09:17;;;;;;;8.45;4.90;;;;;24.70;101927.00;;;;9806753;29;20234;-78
2023/05/19 09:14:18;;;;;;;9.18;5.40;;;;;24.90;101934.00;;;;9801703;29;20337;-78
2023/05/19 09:19:20;;;;;;;7.97;4.38;;;;;25.10;101933.00;;;;9802746;29;21436;-79
2023/05/19 09:24:25;;;;;;;7.50;3.78;;;;;25.20;101931.00;;;;9803078;29;20979;-79
2023/05/19 09:29:26;;;;;;;8.38;4.03;;;;;25.10;101915.00;;;;9787386;29;20723;-78
2023/05/19 09:34:27;;;;;;;7.45;4.07;;;;;25.10;101911.00;;;;9801249;29;20231;-79
2023/05/19 09:39:29;;;;;;;6.00;3.03;;;;;24.50;101928.00;;;;9801985;29;20914;-77
2023/05/19 09:44:33;;;;;;;5.88;3.42;;;;;24.90;101934.00;;;;9800962;29;20304;-78
2023/05/19 09:49:35;;;;;;;8.43;3.72;;;;;24.70;101916.00;;;;9803620;29;20223;-78
2023/05/19 09:54:36;;;;;;;4.75;2.50;;;;;24.80;101921.00;;;;9802932;29;20214;-78
2023/05/19 09:59:39;;;;;;;7.53;2.83;;;;;25.30;101923.00;;;;9802377;29;20915;-78
2023/05/19 10:04:41;;;;;;;7.25;2.40;;;;;25.50;101921.00;;;;9800578;29;20243;-79
2023/05/19 10:09:43;;;;;;;7.45;2.53;;;;;25.70;101931.00;;;;9798544;29;20231;-77
2023/05/19 10:14:46;;;;;;;7.57;2.80;;;;;25.90;101919.00;;;;9807677;29;20247;-78
2023/05/19 10:19:49;;;;;;;6.22;2.65;;;;;26.70;101910.00;;;;9810011;29;20288;-79
2023/05/19 10:24:50;;;;;;;8.90;3.05;;;;;27.10;101923.00;;;;9807302;29;20228;-79
2023/05/19 10:29:57;;;;;;;5.85;2.80;;;;;27.70;101911.00;;;;9843150;29;20219;-82
2023/05/19 10:35:53;;;;;;;6.22;2.92;;;;;28.20;101908.00;;;;9858455;29;20211;-81
2023/05/19 10:41:11;;;;;;;11.20;3.78;;;;;27.60;101908.00;;;;9755154;30;20255;-79
2023/05/19 10:46:13;;;;;;;6.03;2.72;;;;;27.40;101903.00;;;;9847495;29;20238;-80
2023/05/19 10:51:14;;;;;;;8.90;3.30;;;;;26.10;101900.00;;;;9863991;29;20248;-78
2023/05/19 10:56:41;;;;;;;5.13;2.60;;;;;26.50;101899.00;;;;9851595;29;20227;-77
2023/05/19 11:01:42;;;;;;;9.95;3.20;;;;;25.60;101902.00;;;;9841214;29;20231;-79
2023/05/19 11:06:50;;;;;;;6.25;2.97;;;;;26.60;101894.00;;;;9857719;29;20313;-84
2023/05/19 11:11:53;;;;;;;7.35;2.70;;;;;27.50;101884.00;;;;9860143;29;20224;-81
2023/05/19 11:16:59;;;;;;;8.85;2.80;;;;;28.10;101872.00;;;;9858345;29;20416;-78
2023/05/19 11:22:09;;;;;;;5.95;2.67;;;;;28.30;101862.00;;;;9855676;29;20674;-78
2023/05/19 11:27:32;;;;;;;6.57;2.30;;;;;27.20;101865.00;;;;9855823;29;20219;-77
2023/05/19 11:32:37;;;;;;;4.65;2.78;;;;;26.60;101871.00;;;;9858325;29;20227;-83
2023/05/19 11:37:40;;;;;;;7.18;2.22;;;;;25.60;101853.00;;;;9858283;29;20214;-79
2023/05/19 11:42:43;;;;;;;5.93;2.33;;;;;28.20;101844.00;;;;9849139;29;20254;-80
2023/05/19 11:47:46;;;;;;;4.22;2.45;;;;;29.40;101848.00;;;;9873108;29;20215;-80
2023/05/19 11:53:03;;;;;;;10.35;3.15;;;;;29.80;101853.00;;;;9871037;29;20228;-80
2023/05/19 11:58:05;;;;;;;6.68;2.20;;;;;27.40;101851.00;;;;9847096;29;20315;-79
2023/05/19 12:03:07;;;;;;;7.40;2.33;;;;;27.40;101845.00;;;;9870129;29;20228;-78
2023/05/19 12:08:13;;;;;;;5.93;2.80;;;;;28.20;101835.00;;;;9871226;29;20512;-79
2023/05/19 12:13:14;;;;;;;9.70;2.42;;;;;28.60;101832.00;;;;10141171;24;20264;-80
2023/05/19 12:18:29;;;;;;;6.70;2.40;;;;;28.90;101830.00;;;;9899647;24;20227;31
2023/05/19 12:23:32;;;;;;;5.45;2.47;;;;;28.40;101823.00;;;;9973075;24;20402;-79
2023/05/19 12:28:35;;;;;;;5.85;2.58;;;;;28.40;101818.00;;;;9946425;24;20252;-79
2023/05/19 12:33:36;;;;;;;5.38;2.30;;;;;28.30;101818.00;;;;9895695;24;20299;-79
2023/05/19 12:38:38;;;;;;;6.50;2.45;;;;;28.80;101811.00;;;;9855250;29;20472;-78
2023/05/19 12:43:39;;;;;;;6.20;2.25;;;;;28.90;101818.00;;;;9847905;29;20551;-82
2023/05/19 12:48:43;;;;;;;5.03;2.50;;;;;28.90;101807.00;;;;9863454;29;20246;-79
2023/05/19 12:53:45;;;;;;;9.45;2.92;;;;;28.60;101805.00;;;;9845255;29;20819;-79
2023/05/19 12:58:46;;;;;;;6.60;2.50;;;;;27.50;101797.00;;;;9862852;29;20229;-81
2023/05/19 13:03:47;;;;;;;7.05;2.20;;;;;27.90;101796.00;;;;9864401;29;20316;-78
2023/05/19 13:08:49;;;;;;;6.18;2.28;;;;;28.20;101787.00;;;;9864331;29;21536;-78
2023/05/19 13:13:50;;;;;;;6.60;2.40;;;;;28.90;101784.00;;;;9845499;29;20230;-81
2023/05/19 13:18:53;;;;;;;6.18;2.33;;;;;28.10;101794.00;;;;9837181;29;20287;-78
2023/05/19 13:23:54;;;;;;;4.68;2.30;;;;;27.60;101780.00;;;;9949255;24;20258;-79
2023/05/19 13:28:56;;;;;;;7.65;2.40;;;;;27.70;101772.00;;;;9855794;29;20449;-79
2023/05/19 13:33:57;;;;;;;5.72;2.60;;;;;27.20;101766.00;;;;9854037;29;20222;-81
2023/05/19 13:38:59;;;;;;;7.10;2.63;;;;;27.30;101760.00;;;;9842817;29;20231;-82
2023/05/19 13:44:01;;;;;;;8.50;2.45;;;;;26.30;101771.00;;;;9860041;29;20261;-78
2023/05/19 13:49:02;;;;;;;7.15;2.42;;;;;26.70;101765.00;;;;9884077;24;20250;-83
2023/05/19 13:54:04;;;;;;;9.75;3.00;;;;;27.20;101761.00;;;;9991817;24;20254;-79
2023/05/19 14:05:15;;;;;;;4.50;2.20;;;;;27.50;101748.00;;;;10803961;24;20221;-80
2023/05/19 14:10:17;;;;;;;6.95;2.60;;;;;28.00;101738.00;;;;10712599;24;20235;-80
2023/05/19 14:15:19;;;;;;;5.13;2.20;;;;;28.00;101744.00;;;;10026131;24;20227;-79
2023/05/19 14:20:20;;;;;;;5.30;1.98;;;;;28.20;101745.00;;;;10410185;24;20237;-79
2023/05/19 14:25:22;;;;;;;8.50;2.70;;;;;28.60;101738.00;;;;9965893;29;20210;-79
2023/05/19 14:30:23;;;;;;;4.18;2.35;;;;;29.30;101734.00;;;;9992814;24;20516;-84
2023/05/19 14:35:25;;;;;;;5.07;1.95;;;;;28.90;101736.00;;;;10128551;24;20269;-80
2023/05/19 14:40:26;;;;;;;4.82;2.30;;;;;29.60;101716.00;;;;10103650;24;20249;-81
2023/05/19 14:45:30;;;;;;;6.85;1.95;;;;;28.80;101732.00;;;;10990575;24;20221;-89
2023/05/19 14:50:31;;;;;;;5.47;2.53;;;;;29.60;101719.00;;;;10966137;24;20246;-79
2023/05/19 14:55:33;;;;;;;7.10;2.60;;;;;30.80;101715.00;;;;9894186;29;20326;-81
2023/05/19 15:00:34;;;;;;;5.07;2.55;;;;;32.00;101722.00;;;;9963778;24;20239;-80
2023/05/19 15:05:38;;;;;;;7.97;2.25;;;;;32.90;101715.00;;;;10943797;24;20288;-79
2023/05/19 15:10:40;;;;;;;5.75;2.33;;;;;33.00;101702.00;;;;10970993;24;20252;-79
2023/05/19 15:15:41;;;;;;;6.85;2.58;;;;;32.60;101710.00;;;;10279386;24;20361;-81
2023/05/19 15:20:42;;;;;;;6.60;2.50;;;;;31.70;101719.00;;;;10358364;24;20263;-79
2023/05/19 15:26:19;;;;;;;7.60;1.70;;;;;31.20;101698.00;;;;11535909;24;20210;31
2023/05/19 15:31:21;;;;;;;7.03;2.05;;;;;32.90;101706.00;;;;10253627;24;20941;-83
2023/05/19 15:36:22;;;;;;;3.58;2.13;;;;;32.80;101693.00;;;;9886818;29;20221;-79
2023/05/19 15:41:24;;;;;;;6.72;2.40;;;;;31.90;101689.00;;;;9898192;29;20660;-85
2023/05/19 15:46:25;;;;;;;6.85;2.30;;;;;27.60;101696.00;;;;10474090;24;20556;-82
2023/05/19 15:51:27;;;;;;;5.07;2.13;;;;;26.50;101691.00;;;;9917499;29;20976;-79
2023/05/19 15:56:28;;;;;;;4.10;2.03;;;;;25.00;101690.00;;;;10022578;24;20406;-78
2023/05/19 16:01:30;;;;;;;6.30;2.55;;;;;24.10;101683.00;;;;9989123;24;20258;-78
2023/05/19 16:06:31;;;;;;;5.70;2.63;;;;;24.00;101682.00;;;;9922516;29;20223;-79
2023/05/19 16:11:32;;;;;;;87.35;57.50;;;;;24.10;101678.00;;;;9896586;29;20688;-80
2023/05/19 16:16:34;;;;;;;7.65;3.67;;;;;23.90;101670.00;;;;9911050;29;21621;-81
2023/05/19 16:21:35;;;;;;;17.00;9.98;;;;;23.20;101683.00;;;;9914766;29;20233;-78
2023/05/19 16:26:37;;;;;;;29.05;22.80;;;;;22.40;101675.00;;;;10054607;24;20259;-78
2023/05/19 16:31:38;;;;;;;10.95;6.47;;;;;22.10;101668.00;;;;9998483;24;20243;-78
2023/05/19 16:36:39;;;;;;;11.23;4.43;;;;;22.00;101664.00;;;;9873654;29;20219;-80
2023/05/19 16:41:40;;;;;;;12.93;7.22;;;;;21.80;101655.00;;;;9874508;29;20246;-80
2023/05/19 16:46:42;;;;;;;19.05;13.98;;;;;21.90;101655.00;;;;9869243;29;21449;-80
2023/05/19 16:51:43;;;;;;;6.93;3.20;;;;;21.70;101660.00;;;;9867339;29;20247;-78
2023/05/19 16:56:46;;;;;;;8.65;4.00;;;;;21.50;101657.00;;;;9847330;29;20247;-79
2023/05/19 17:01:47;;;;;;;16.65;8.35;;;;;21.40;101653.00;;;;9845883;29;20239;-81
2023/05/19 17:06:49;;;;;;;5.85;2.80;;;;;21.30;101659.00;;;;9842012;29;20307;-82
2023/05/19 17:11:53;;;;;;;5.75;2.63;;;;;21.20;101672.00;;;;9825418;29;20216;-81
2023/05/19 17:16:54;;;;;;;8.32;3.47;;;;;21.10;101657.00;;;;9854111;29;20231;-80
2023/05/19 17:21:56;;;;;;;56.92;37.42;;;;;21.00;101656.00;;;;9825579;29;20304;-79
2023/05/19 17:26:58;;;;;;;149.85;94.00;;;;;20.90;101657.00;;;;9835386;29;20220;-80
2023/05/19 17:32:00;;;;;;;73.05;49.15;;;;;20.60;101660.00;;;;9854524;29;20258;-82
2023/05/19 17:37:01;;;;;;;59.53;39.05;;;;;20.40;101657.00;;;;9848882;29;20269;-83
2023/05/19 17:42:02;;;;;;;60.45;38.85;;;;;20.20;101654.00;;;;9847043;29;20708;-81
2023/05/19 17:47:06;;;;;;;27.23;15.13;;;;;20.00;101667.00;;;;9830460;29;20223;-83
2023/05/19 17:52:08;;;;;;;15.45;7.85;;;;;19.80;101665.00;;;;9828314;29;20471;-78
2023/05/19 17:57:13;;;;;;;30.60;19.20;;;;;19.60;101668.00;;;;9828172;29;20358;-81
2023/05/19 18:02:15;;;;;;;50.80;32.70;;;;;19.40;101669.00;;;;9824087;29;20286;-80
2023/05/19 18:07:16;;;;;;;58.28;39.00;;;;;19.20;101663.00;;;;9831288;29;20230;-78
2023/05/19 18:12:18;;;;;;;11.13;6.30;;;;;19.10;101668.00;;;;9838365;29;20216;-83
2023/05/19 18:17:19;;;;;;;45.08;31.88;;;;;18.90;101674.00;;;;9817861;29;20224;-79
2023/05/19 18:22:21;;;;;;;14.38;8.50;;;;;18.70;101671.00;;;;9813868;29;20326;-83
2023/05/19 18:27:22;;;;;;;19.85;9.82;;;;;18.60;101669.00;;;;9838125;29;21807;-82
2023/05/19 18:32:23;;;;;;;9.75;5.35;;;;;18.40;101668.00;;;;9825232;29;20834;-81
2023/05/19 18:37:25;;;;;;;15.40;6.80;;;;;18.20;101674.00;;;;9834158;29;20223;-81
2023/05/19 18:42:27;;;;;;;26.08;15.32;;;;;18.00;101678.00;;;;9831608;29;20351;-80
2023/05/19 18:47:28;;;;;;;60.75;37.72;;;;;17.80;101678.00;;;;9839701;29;20649;-81
2023/05/19 18:52:30;;;;;;;13.70;7.13;;;;;17.60;101679.00;;;;9826331;29;20336;-81
2023/05/19 18:57:31;;;;;;;93.50;55.30;;;;;17.40;101684.00;;;;9841955;29;20216;-83
2023/05/19 19:02:33;;;;;;;149.60;86.38;;;;;17.20;101689.00;;;;9841687;29;20239;-80
2023/05/19 19:07:41;;;;;;;24.80;12.98;;;;;17.00;101692.00;;;;9836949;29;20251;-82
2023/05/19 19:12:43;;;;;;;21.38;9.90;;;;;16.80;101694.00;;;;9834473;29;21226;-82
2023/05/19 19:17:44;;;;;;;20.90;10.48;;;;;16.70;101693.00;;;;9843048;29;20262;-84
2023/05/19 19:22:45;;;;;;;16.67;7.75;;;;;16.50;101701.00;;;;9835580;29;20830;-81
2023/05/19 19:27:47;;;;;;;9.75;4.43;;;;;16.30;101707.00;;;;9830085;29;20224;-82
2023/05/19 19:32:48;;;;;;;7.10;2.90;;;;;16.10;101706.00;;;;9830142;29;20234;-80
2023/05/19 19:37:50;;;;;;;7.43;2.95;;;;;15.90;101707.00;;;;9809165;29;20211;-83
2023/05/19 19:42:51;;;;;;;7.47;2.65;;;;;15.70;101714.00;;;;9799072;29;20848;-80
2023/05/19 19:47:53;;;;;;;12.30;5.03;;;;;15.60;101716.00;;;;9833642;29;20250;-80
2023/05/19 19:52:54;;;;;;;8.95;2.25;;;;;15.50;101725.00;;;;9811568;29;20227;-80
2023/05/19 19:57:56;;;;;;;6.80;2.70;;;;;15.30;101729.00;;;;9828109;29;20295;-82
2023/05/19 20:02:57;;;;;;;9.63;2.50;;;;;15.20;101746.00;;;;9807671;29;20371;-83
2023/05/19 20:08:02;;;;;;;7.57;2.50;;;;;15.10;101735.00;;;;9820253;29;20239;-81
2023/05/19 20:13:04;;;;;;;5.60;2.43;;;;;15.10;101737.00;;;;9823741;29;20234;-84
2023/05/19 20:18:05;;;;;;;6.83;2.23;;;;;15.00;101739.00;;;;9818143;29;21286;-82
2023/05/19 20:23:07;;;;;;;9.57;3.17;;;;;14.90;101735.00;;;;9848500;29;20318;-84
2023/05/19 20:28:08;;;;;;;6.93;3.37;;;;;14.80;101741.00;;;;9836255;29;20807;-80
2023/05/19 20:33:10;;;;;;;9.27;2.90;;;;;14.70;101742.00;;;;9834413;29;20281;-84
2023/05/19 20:38:12;;;;;;;5.57;2.27;;;;;14.70;101747.00;;;;9833230;29;20312;-84
2023/05/19 20:43:13;;;;;;;9.00;2.50;;;;;14.60;101751.00;;;;9852003;29;20240;-80
2023/05/19 20:48:14;;;;;;;4.00;2.50;;;;;14.50;101750.00;;;;9829376;29;20220;-82
2023/05/19 20:53:18;;;;;;;9.93;2.53;;;;;14.40;101750.00;;;;9831989;29;20632;-82
2023/05/19 20:58:20;;;;;;;4.97;2.50;;;;;14.40;101752.00;;;;9824250;29;20855;-84
2023/05/19 21:03:25;;;;;;;6.07;2.67;;;;;14.30;101748.00;;;;9835977;29;20855;-82
2023/05/19 21:08:26;;;;;;;6.37;3.07;;;;;14.10;101746.00;;;;9822457;29;20215;-80
2023/05/19 21:13:28;;;;;;;9.17;3.43;;;;;14.10;101761.00;;;;9838607;29;20223;-83
2023/05/19 21:18:29;;;;;;;9.80;3.23;;;;;14.00;101752.00;;;;9817255;29;20306;-80
2023/05/19 21:23:31;;;;;;;10.67;3.47;;;;;13.90;101764.00;;;;9835263;29;20328;-81
2023/05/19 21:28:32;;;;;;;6.47;3.10;;;;;13.80;101765.00;;;;9806045;29;20231;-81
2023/05/19 21:33:34;;;;;;;6.27;3.10;;;;;13.70;101761.00;;;;9824862;29;20947;-82
2023/05/19 21:38:35;;;;;;;11.43;4.20;;;;;13.60;101752.00;;;;9825881;29;20235;-83
2023/05/19 21:43:36;;;;;;;6.87;3.10;;;;;13.60;101749.00;;;;9839186;29;20342;-83
2023/05/19 21:48:38;;;;;;;5.60;3.10;;;;;13.60;101764.00;;;;9823998;29;21658;-85
2023/05/19 21:53:39;;;;;;;10.33;3.53;;;;;13.50;101759.00;;;;9843874;29;21731;-80
2023/05/19 21:58:41;;;;;;;6.87;3.20;;;;;13.30;101762.00;;;;9835800;29;20226;-79
2023/05/19 22:03:43;;;;;;;11.03;3.37;;;;;13.30;101761.00;;;;9782491;29;20342;-79
2023/05/19 22:08:44;;;;;;;6.33;3.70;;;;;13.20;101765.00;;;;9833068;29;21357;-81
2023/05/19 22:13:46;;;;;;;12.47;4.13;;;;;13.20;101755.00;;;;9843972;29;20215;-82
2023/05/19 22:18:47;;;;;;;8.13;4.30;;;;;13.10;101758.00;;;;9826007;29;20296;-80
2023/05/19 22:23:51;;;;;;;9.10;3.70;;;;;13.00;101751.00;;;;9835362;29;20235;-78
2023/05/19 22:28:52;;;;;;;11.07;4.40;;;;;13.00;101756.00;;;;9827301;29;20440;-81
2023/05/19 22:33:53;;;;;;;12.23;4.37;;;;;13.00;101754.00;;;;9834418;29;20227;-79
2023/05/19 22:38:54;;;;;;;6.03;3.90;;;;;12.90;101754.00;;;;9827058;29;21357;-81
2023/05/19 22:43:56;;;;;;;7.93;3.77;;;;;12.80;101751.00;;;;9803132;29;20644;-78
2023/05/19 22:48:57;;;;;;;12.40;4.00;;;;;12.80;101753.00;;;;9803186;29;20258;-82
2023/05/19 22:53:59;;;;;;;8.30;4.47;;;;;12.70;101745.00;;;;9844779;29;20243;-81
2023/05/19 22:59:00;;;;;;;9.33;3.97;;;;;12.70;101742.00;;;;9796903;29;20223;-80
2023/05/19 23:04:01;;;;;;;10.67;4.30;;;;;12.60;101739.00;;;;9812159;29;20318;-78
2023/05/19 23:09:03;;;;;;;10.70;4.60;;;;;12.60;101743.00;;;;9827611;29;20223;-79
2023/05/19 23:14:04;;;;;;;11.00;4.30;;;;;12.50;101746.00;;;;9817566;29;21521;-82
2023/05/19 23:19:06;;;;;;;8.07;4.70;;;;;12.40;101730.00;;;;9830609;29;20926;-81
2023/05/19 23:24:07;;;;;;;7.97;4.17;;;;;12.30;101740.00;;;;9830306;29;20300;-80
2023/05/19 23:29:12;;;;;;;6.23;5.00;;;;;12.30;101736.00;;;;9831623;29;21078;-83
2023/05/19 23:34:14;;;;;;;9.70;4.23;;;;;12.20;101733.00;;;;9810030;29;20582;-81
2023/05/19 23:39:15;;;;;;;8.37;4.50;;;;;12.20;101723.00;;;;9807824;29;20277;-80
2023/05/19 23:44:17;;;;;;;11.17;5.10;;;;;12.10;101724.00;;;;9822583;29;21426;-82
2023/05/19 23:49:19;;;;;;;7.43;4.83;;;;;12.00;101714.00;;;;9822582;29;20224;-80
2023/05/19 23:54:20;;;;;;;8.87;4.43;;;;;12.00;101729.00;;;;9808343;29;20802;-82
2023/05/19 23:59:22;;;;;;;8.00;5.13;;;;;12.00;101729.00;;;;9809082;29;20251;-81
